Time;durP1;ratioP1;P1;durP2;ratioP2;P2;SDS_P1;SDS_P2;PMS_P1;PMS_P2;Temp;Humidity;BMP_temperature;BMP_pressure;BME280_temperature;BME280_humidity;BME280_pressure;Samples;Min_cycle;Max_cycle;Signal;HPM_P1;HPM_P2
2023/12/03 00:02:01;;;;;;;11.05;3.35;;;;;;;15.13;47.56;93926.53;5095694;28;20208;-70
2023/12/03 00:04:28;;;;;;;10.48;3.30;;;;;;;15.13;47.35;93943.19;5077992;28;20200;-70
2023/12/03 00:06:55;;;;;;;12.50;3.83;;;;;;;15.14;47.49;93938.41;5096404;28;20273;-70
2023/12/03 00:09:26;;;;;;;11.27;3.08;;;;;;;15.14;47.01;93947.56;5077695;28;20287;-70
2023/12/03 00:11:54;;;;;;;9.13;3.17;;;;;;;15.14;47.47;93955.91;5094480;28;20712;-69
2023/12/03 00:14:24;;;;;;;9.57;3.42;;;;;;;15.14;47.48;93949.53;5089578;28;20285;-69
2023/12/03 00:16:55;;;;;;;8.38;2.83;;;;;;;15.12;47.33;93952.72;5091431;28;20526;-69
2023/12/03 00:19:30;;;;;;;9.68;3.03;;;;;;;15.13;47.35;93959.84;5058568;28;20185;-69
2023/12/03 00:21:59;;;;;;;12.25;3.38;;;;;;;15.16;47.00;93966.56;5075653;28;20242;-70
2023/12/03 00:24:26;;;;;;;9.30;3.13;;;;;;;15.18;47.17;93955.88;5091612;28;20255;-69
2023/12/03 00:26:53;;;;;;;12.40;3.28;;;;;;;15.21;47.34;93966.13;5091726;28;20208;-70
2023/12/03 00:29:24;;;;;;;11.45;3.15;;;;;;;15.18;47.32;93958.63;5092058;28;20227;-70
2023/12/03 00:31:56;;;;;;;11.10;3.53;;;;;;;15.17;47.81;93973.72;5074982;28;20524;-70
2023/12/03 00:34:26;;;;;;;10.80;3.17;;;;;;;15.17;47.20;93965.38;5057822;28;20189;-70
2023/12/03 00:36:57;;;;;;;9.38;3.42;;;;;;;15.19;47.16;93973.31;5058393;28;20561;-70
2023/12/03 00:39:27;;;;;;;12.57;3.58;;;;;;;15.23;47.03;93963.75;5058156;28;20221;-70
2023/12/03 00:41:56;;;;;;;12.77;3.58;;;;;;;15.24;47.09;93978.41;5057360;28;20205;-70
2023/12/03 00:44:23;;;;;;;7.53;2.88;;;;;;;15.25;47.04;93989.13;5091282;28;20201;-70
2023/12/03 00:46:52;;;;;;;12.82;3.38;;;;;;;15.27;47.24;93988.72;5091477;28;20212;-70
2023/12/03 00:49:20;;;;;;;11.20;2.70;;;;;;;15.27;47.01;93985.94;5091185;28;20205;-71
2023/12/03 00:51:49;;;;;;;15.70;3.50;;;;;;;15.29;47.09;93991.88;5056820;28;20197;-70
2023/12/03 00:54:18;;;;;;;12.02;3.25;;;;;;;15.30;47.09;93997.03;5057483;28;20185;-70
2023/12/03 00:56:45;;;;;;;10.25;3.45;;;;;;;15.32;47.04;93983.53;5090707;28;20235;-70
2023/12/03 00:59:15;;;;;;;13.25;3.40;;;;;;;15.33;46.96;93992.66;5091328;28;20196;-70
2023/12/03 01:01:42;;;;;;;11.65;3.22;;;;;;;15.34;47.02;93991.44;5060479;28;20493;-71
2023/12/03 01:04:09;;;;;;;14.38;4.40;;;;;;;15.34;47.30;94022.78;5062064;28;20208;-70
2023/12/03 01:06:37;;;;;;;12.43;4.07;;;;;;;15.37;46.96;94012.84;5062018;28;20250;-70
2023/12/03 01:09:08;;;;;;;11.15;3.17;;;;;;;15.38;47.30;94006.88;5095185;28;20246;-70
2023/12/03 01:11:43;;;;;;;11.57;3.20;;;;;;;15.39;47.43;94010.44;5094814;28;20617;-71
2023/12/03 01:14:13;;;;;;;12.13;3.60;;;;;;;15.38;47.36;94014.41;5078644;28;20260;-70
2023/12/03 01:16:40;;;;;;;11.07;3.33;;;;;;;15.37;47.39;94005.31;5061527;28;20212;-70
2023/12/03 01:19:09;;;;;;;11.25;3.63;;;;;;;15.37;47.53;94010.84;5078177;28;20197;-70
2023/12/03 01:21:39;;;;;;;11.68;3.15;;;;;;;15.38;47.77;94015.22;5061664;28;20600;-70
2023/12/03 01:24:09;;;;;;;10.15;3.70;;;;;;;15.40;47.50;94018.38;5061226;28;20207;-70
2023/12/03 01:26:38;;;;;;;12.70;3.53;;;;;;;15.41;47.63;94027.50;5078011;28;20292;-70
2023/12/03 01:29:11;;;;;;;11.85;3.08;;;;;;;15.41;47.39;94041.38;5078376;28;20208;-70
2023/12/03 01:31:41;;;;;;;14.95;3.13;;;;;;;15.41;47.94;94021.94;5077710;28;20197;-70
2023/12/03 01:34:08;;;;;;;13.77;3.50;;;;;;;15.41;47.76;94021.94;5078064;28;20533;-70
2023/12/03 01:36:37;;;;;;;10.07;3.60;;;;;;;15.39;47.74;94016.00;5061194;28;20236;-70
2023/12/03 01:39:07;;;;;;;12.68;3.55;;;;;;;15.39;47.81;94021.53;5077397;28;20204;-70
2023/12/03 01:41:34;;;;;;;11.73;3.58;;;;;;;15.39;48.20;94024.31;5061727;28;20535;-70
2023/12/03 01:44:02;;;;;;;12.48;3.67;;;;;;;15.39;48.12;94027.09;5061199;28;20259;-70
2023/12/03 01:46:36;;;;;;;12.15;3.95;;;;;;;15.39;48.24;94021.53;5078046;28;20201;-70
2023/12/03 01:49:07;;;;;;;13.10;3.55;;;;;;;15.37;48.35;94027.53;5077222;28;20277;-70
2023/12/03 01:51:36;;;;;;;14.32;3.30;;;;;;;15.36;48.13;94016.84;5060495;28;20201;-70
2023/12/03 01:54:04;;;;;;;14.18;3.78;;;;;;;15.34;48.27;94025.56;5060631;28;20200;-70
2023/12/03 01:56:31;;;;;;;12.98;3.60;;;;;;;15.35;48.29;94020.78;5060166;28;20239;-69
2023/12/03 01:59:01;;;;;;;12.07;3.90;;;;;;;15.33;48.30;94029.53;5076910;28;20629;-70
2023/12/03 02:01:34;;;;;;;10.30;3.53;;;;;;;15.33;48.74;94009.31;5060057;28;20231;-70
2023/12/03 02:04:03;;;;;;;10.25;3.13;;;;;;;15.31;48.65;94015.25;5060058;28;20558;-70
2023/12/03 02:06:31;;;;;;;12.27;3.28;;;;;;;15.31;48.51;94022.81;5060668;28;20213;-70
2023/12/03 02:09:02;;;;;;;9.63;2.75;;;;;;;15.30;48.52;94005.34;5059743;28;20213;-71
2023/12/03 02:11:30;;;;;;;15.90;3.75;;;;;;;15.29;48.59;94011.34;5060047;28;20205;-70
2023/12/03 02:14:01;;;;;;;11.60;3.58;;;;;;;15.31;48.95;93997.81;5079603;28;20315;-70
2023/12/03 02:16:30;;;;;;;12.75;3.65;;;;;;;15.32;48.57;94011.31;5079915;28;20236;-70
2023/12/03 02:18:59;;;;;;;13.23;3.63;;;;;;;15.34;48.51;94000.56;5079819;28;20690;-70
2023/12/03 02:21:26;;;;;;;14.40;3.35;;;;;;;15.33;48.99;93989.88;5097640;28;20188;-70
2023/12/03 02:23:55;;;;;;;15.13;3.92;;;;;;;15.31;49.09;94000.59;5079751;28;20196;-70
2023/12/03 02:26:24;;;;;;;11.77;3.05;;;;;;;15.31;49.23;94006.16;5079663;28;20193;-70
2023/12/03 02:28:52;;;;;;;13.98;3.63;;;;;;;15.31;48.99;94006.94;5080146;28;20205;-70
2023/12/03 02:31:21;;;;;;;13.73;3.80;;;;;;;15.31;48.92;94008.91;5080875;28;20184;-70
2023/12/03 02:33:57;;;;;;;14.55;4.07;;;;;;;15.32;49.06;94008.53;5079596;28;20197;-70
2023/12/03 02:36:24;;;;;;;13.18;3.97;;;;;;;15.31;48.96;94017.25;5079546;28;20615;-70
2023/12/03 02:38:51;;;;;;;14.60;3.58;;;;;;;15.29;49.00;94000.22;5080102;28;20193;-70
2023/12/03 02:41:22;;;;;;;10.10;3.17;;;;;;;15.28;49.12;94001.41;5080210;28;20197;-70
2023/12/03 02:43:50;;;;;;;12.85;3.67;;;;;;;15.27;49.58;94008.94;5080368;28;20200;-70
2023/12/03 02:46:17;;;;;;;13.73;4.20;;;;;;;15.26;49.42;94012.94;5079669;28;20196;-70
2023/12/03 02:48:44;;;;;;;12.18;3.55;;;;;;;15.24;49.46;94023.66;5097073;28;20212;-70
2023/12/03 02:51:11;;;;;;;13.25;3.70;;;;;;;15.23;49.76;94026.84;5080375;28;20189;-70
2023/12/03 02:53:38;;;;;;;14.13;4.03;;;;;;;15.21;49.57;94015.34;5079067;28;20196;-70
2023/12/03 02:56:07;;;;;;;11.82;3.55;;;;;;;15.17;49.66;94009.81;5079449;28;20185;-70
2023/12/03 02:58:35;;;;;;;13.18;3.53;;;;;;;15.16;50.08;94019.34;5079095;28;20204;-70
2023/12/03 03:01:02;;;;;;;13.15;4.03;;;;;;;15.14;49.74;94047.53;5079027;28;20212;-70
2023/12/03 03:03:29;;;;;;;13.52;3.92;;;;;;;15.14;49.69;94021.72;5078998;28;20200;-70
2023/12/03 03:05:56;;;;;;;14.70;3.60;;;;;;;15.13;50.09;94017.38;5078911;28;20257;-70
2023/12/03 03:08:23;;;;;;;15.27;3.42;;;;;;;15.11;50.15;94017.00;5079470;28;20224;-70
2023/12/03 03:10:53;;;;;;;12.32;3.22;;;;;;;15.10;49.96;94032.06;5078898;28;20612;-70
2023/12/03 03:13:21;;;;;;;10.38;3.38;;;;;;;15.10;50.22;94037.63;5078549;28;20307;-70
2023/12/03 03:15:51;;;;;;;12.85;3.58;;;;;;;15.09;50.04;94028.50;5056498;28;20198;-69
2023/12/03 03:18:22;;;;;;;12.63;3.25;;;;;;;15.08;50.12;94031.72;5055685;28;20198;-69
2023/12/03 03:20:49;;;;;;;15.55;3.95;;;;;;;15.07;50.05;94032.88;5055303;28;20200;-69
2023/12/03 03:23:18;;;;;;;13.32;4.28;;;;;;;15.07;49.82;94027.34;5055912;28;20193;-69
2023/12/03 03:25:46;;;;;;;14.90;3.90;;;;;;;15.07;50.00;94038.44;5072939;28;20231;-69
2023/12/03 03:28:13;;;;;;;13.40;3.60;;;;;;;15.07;50.08;94030.94;5055914;28;20213;-69
2023/12/03 03:30:43;;;;;;;18.20;4.43;;;;;;;15.02;50.56;94053.56;5055563;28;20251;-69
2023/12/03 03:33:13;;;;;;;11.93;3.50;;;;;;;15.01;50.37;94045.63;5055588;28;20251;-69
2023/12/03 03:35:43;;;;;;;14.50;3.92;;;;;;;14.99;50.11;94048.81;5072266;28;20194;-70
2023/12/03 03:38:10;;;;;;;13.88;3.65;;;;;;;14.99;50.52;94051.59;5055712;28;20281;-70
2023/12/03 03:40:37;;;;;;;14.52;3.72;;;;;;;14.98;50.34;94054.78;5056058;28;20189;-70
2023/12/03 03:43:06;;;;;;;11.77;3.75;;;;;;;14.97;50.25;94067.88;5056038;28;20228;-70
2023/12/03 03:45:36;;;;;;;14.52;3.15;;;;;;;14.98;50.50;94057.56;5055308;28;20213;-70
2023/12/03 03:48:03;;;;;;;12.30;3.10;;;;;;;14.99;50.61;94067.44;5055078;28;20222;-70
2023/12/03 03:50:32;;;;;;;11.25;3.40;;;;;;;15.00;50.65;94069.84;5056024;28;20178;-70
2023/12/03 03:52:59;;;;;;;11.50;3.70;;;;;;;15.01;50.56;94076.19;5054984;28;20202;-70
2023/12/03 03:55:27;;;;;;;8.85;2.97;;;;;;;15.02;50.43;94086.88;5055753;28;20182;-70
2023/12/03 03:57:56;;;;;;;13.07;3.05;;;;;;;15.02;50.61;94097.97;5054919;28;20216;-70
2023/12/03 04:00:24;;;;;;;10.77;3.60;;;;;;;15.02;50.63;94095.19;5054787;28;20205;-70
2023/12/03 04:02:52;;;;;;;8.45;2.70;;;;;;;15.01;50.63;94107.50;5055258;28;20244;-70
2023/12/03 04:05:20;;;;;;;13.10;3.25;;;;;;;14.99;51.00;94098.00;5054832;28;20194;-70
2023/12/03 04:07:49;;;;;;;11.25;3.50;;;;;;;14.89;51.22;94102.44;5054834;28;20218;-70
2023/12/03 04:10:16;;;;;;;12.15;3.47;;;;;;;14.80;51.66;94105.63;5054638;28;20206;-70
2023/12/03 04:12:43;;;;;;;7.95;3.22;;;;;;;14.71;51.96;94116.38;5054918;28;20206;-70
2023/12/03 04:15:12;;;;;;;12.50;3.28;;;;;;;14.61;51.82;94123.53;5052703;28;20229;-70
2023/12/03 04:17:39;;;;;;;15.38;3.20;;;;;;;14.52;52.29;94116.81;5055603;28;20209;-70
2023/12/03 04:20:08;;;;;;;10.50;2.90;;;;;;;14.49;52.21;94125.91;5054704;28;20260;-70
2023/12/03 04:22:38;;;;;;;10.35;3.22;;;;;;;14.47;52.25;94129.09;5054752;28;20193;-70
2023/12/03 04:25:08;;;;;;;10.00;3.50;;;;;;;14.43;52.42;94134.66;5054443;28;20602;-70
2023/12/03 04:27:37;;;;;;;11.68;3.67;;;;;;;14.42;52.12;94129.53;5054242;28;20189;-70
2023/12/03 04:30:07;;;;;;;10.80;3.47;;;;;;;14.41;51.89;94150.13;5054712;28;20194;-70
2023/12/03 04:32:34;;;;;;;10.73;3.78;;;;;;;14.40;52.19;94163.19;5054665;28;20194;-70
2023/12/03 04:35:01;;;;;;;9.65;3.60;;;;;;;14.38;52.44;94162.81;5054332;28;20198;-70
2023/12/03 04:37:28;;;;;;;9.48;3.47;;;;;;;14.38;52.83;94170.34;5054511;28;20194;-70
2023/12/03 04:39:55;;;;;;;10.98;3.40;;;;;;;14.35;53.72;94171.94;5054802;28;20198;-71
2023/12/03 04:42:24;;;;;;;10.38;3.95;;;;;;;14.31;54.26;94179.47;5054939;28;20201;-71
2023/12/03 04:44:51;;;;;;;10.18;3.28;;;;;;;14.25;54.52;94192.16;5054012;28;20198;-71
2023/12/03 04:47:18;;;;;;;11.80;3.30;;;;;;;14.17;54.93;94196.13;5054701;28;20251;-70
2023/12/03 04:49:45;;;;;;;9.18;3.28;;;;;;;14.10;55.64;94204.44;5054497;28;20221;-70
2023/12/03 04:52:12;;;;;;;8.82;3.00;;;;;;;13.98;56.51;94208.41;5054531;28;20193;-70
2023/12/03 04:54:39;;;;;;;7.05;3.00;;;;;;;13.87;55.78;94213.94;5054658;28;20189;-70
2023/12/03 04:57:06;;;;;;;7.95;3.03;;;;;;;13.78;56.01;94216.31;5054598;28;20204;-70
2023/12/03 04:59:34;;;;;;;10.57;3.35;;;;;;;13.64;56.29;94230.91;5054499;28;20259;-70
2023/12/03 05:02:01;;;;;;;9.20;3.33;;;;;;;13.60;56.72;94241.22;5053886;28;20205;-69
2023/12/03 05:04:28;;;;;;;8.15;3.13;;;;;;;13.56;57.53;94240.41;5054073;28;20247;-69
2023/12/03 05:06:55;;;;;;;7.82;3.08;;;;;;;13.54;58.14;94241.97;5054907;28;20255;-69
2023/12/03 05:09:22;;;;;;;8.45;2.83;;;;;;;13.51;58.54;94251.06;5070370;28;20217;-69
2023/12/03 05:11:49;;;;;;;7.85;3.22;;;;;;;13.47;58.90;94259.38;5054918;28;20193;-69
2023/12/03 05:14:16;;;;;;;9.98;2.90;;;;;;;13.41;59.60;94263.72;5054220;28;20233;-69
2023/12/03 05:16:45;;;;;;;8.10;3.15;;;;;;;13.39;59.78;94266.06;5070390;28;20251;-70
2023/12/03 05:19:12;;;;;;;8.23;3.17;;;;;;;13.39;59.92;94249.44;5054202;28;20194;-70
2023/12/03 05:21:39;;;;;;;10.23;3.58;;;;;;;13.37;60.65;94258.16;5070331;28;20642;-71
2023/12/03 05:24:07;;;;;;;8.75;3.35;;;;;;;13.33;61.01;94242.72;5054137;28;20205;-70
2023/12/03 05:26:34;;;;;;;9.55;3.38;;;;;;;13.29;61.78;94242.72;5053623;28;20202;-71
2023/12/03 05:29:01;;;;;;;9.70;3.10;;;;;;;13.27;61.69;94241.50;5053784;28;20271;-71
2023/12/03 05:31:29;;;;;;;5.72;3.03;;;;;;;13.27;61.48;94250.59;5053932;28;20201;-71
2023/12/03 05:33:57;;;;;;;10.10;3.30;;;;;;;13.27;61.20;94250.59;5054224;28;20548;-71
2023/12/03 05:36:24;;;;;;;9.93;3.00;;;;;;;13.23;61.52;94253.38;5055013;28;20202;-70
2023/12/03 05:38:53;;;;;;;5.75;3.10;;;;;;;13.19;62.32;94255.28;5053763;28;20185;-70
2023/12/03 05:41:22;;;;;;;8.27;3.00;;;;;;;13.14;62.81;94254.88;5054523;28;20202;-70
2023/12/03 05:43:49;;;;;;;9.90;3.47;;;;;;;13.10;62.84;94256.81;5070484;28;20205;-70
2023/12/03 05:46:16;;;;;;;7.47;3.13;;;;;;;13.03;63.19;94252.03;5054335;28;20610;-70
2023/12/03 05:48:44;;;;;;;8.57;3.33;;;;;;;12.98;63.34;94261.53;5059162;28;20355;-70
2023/12/03 05:51:12;;;;;;;9.90;2.92;;;;;;;12.91;64.05;94267.00;5073939;28;20301;-70
2023/12/03 05:53:39;;;;;;;10.38;3.28;;;;;;;12.88;63.66;94267.78;5074330;28;20214;-71
2023/12/03 05:56:08;;;;;;;7.82;3.20;;;;;;;12.89;63.93;94277.69;5057445;28;20198;-70
2023/12/03 05:58:34;;;;;;;8.25;3.20;;;;;;;12.92;63.51;94284.41;5073862;28;20638;-70
2023/12/03 06:01:02;;;;;;;7.55;2.70;;;;;;;12.90;63.97;94282.03;5073767;28;20255;-70
2023/12/03 06:03:29;;;;;;;5.35;2.88;;;;;;;12.92;63.76;94289.94;5056763;28;20238;-70
2023/12/03 06:05:57;;;;;;;12.02;3.40;;;;;;;12.90;63.76;94295.88;5057799;28;20210;-70
2023/12/03 06:08:26;;;;;;;7.45;3.10;;;;;;;12.89;63.76;94296.25;5040300;28;20236;-70
2023/12/03 06:10:54;;;;;;;7.10;3.28;;;;;;;12.88;63.54;94294.66;5057815;28;20201;-70
2023/12/03 06:13:21;;;;;;;8.68;3.38;;;;;;;12.87;64.03;94313.25;5056577;28;20209;-69
2023/12/03 06:15:48;;;;;;;8.13;4.70;;;;;;;12.85;65.12;94307.28;5079335;28;20200;-71
2023/12/03 06:18:15;;;;;;;11.82;5.90;;;;;;;12.77;65.88;94320.28;5080616;28;20196;-71
2023/12/03 06:20:42;;;;;;;9.90;5.40;;;;;;;12.66;66.38;94332.47;5080044;28;20201;-70
2023/12/03 06:23:12;;;;;;;12.20;5.32;;;;;;;12.60;67.32;94332.06;5081154;28;20221;-71
2023/12/03 06:25:40;;;;;;;12.07;5.88;;;;;;;12.52;67.48;94335.91;5079753;28;20300;-71
2023/12/03 06:28:07;;;;;;;11.88;5.80;;;;;;;12.53;67.20;94343.06;5080337;28;20223;-71
2023/12/03 06:30:36;;;;;;;9.43;5.22;;;;;;;12.56;67.23;94349.78;5079942;28;20216;-71
2023/12/03 06:33:03;;;;;;;10.50;6.95;;;;;;;12.56;67.79;94347.00;5063393;28;20261;-70
2023/12/03 06:35:30;;;;;;;11.95;6.25;;;;;;;12.56;67.31;94347.00;5080171;28;20222;-71
2023/12/03 06:37:56;;;;;;;9.88;6.45;;;;;;;12.58;67.45;94348.22;5079649;28;20218;-71
2023/12/03 06:40:26;;;;;;;13.18;6.32;;;;;;;12.57;67.31;94345.84;5080498;28;20216;-71
2023/12/03 06:42:54;;;;;;;13.85;7.38;;;;;;;12.60;67.25;94356.94;5080163;28;20300;-71
2023/12/03 06:45:21;;;;;;;11.13;5.97;;;;;;;12.61;67.30;94366.84;5080076;28;20189;-71
2023/12/03 06:47:50;;;;;;;11.77;6.78;;;;;;;12.60;67.29;94373.56;5080043;28;20222;-71
2023/12/03 06:50:17;;;;;;;12.10;6.40;;;;;;;12.59;68.12;94380.22;5079323;28;20230;-70
2023/12/03 06:52:44;;;;;;;11.60;5.93;;;;;;;12.62;68.36;94382.25;5080490;28;20249;-70
2023/12/03 06:55:12;;;;;;;13.88;6.72;;;;;;;12.64;69.36;94384.66;5079261;28;20224;-71
2023/12/03 06:57:40;;;;;;;10.32;6.10;;;;;;;12.59;69.84;94393.28;5097149;28;20264;-71
2023/12/03 07:00:10;;;;;;;13.98;8.50;;;;;;;12.57;70.54;94379.06;5078896;28;20192;-71
2023/12/03 07:02:38;;;;;;;11.75;6.82;;;;;;;12.55;71.39;94381.41;5079121;28;20621;-70
2023/12/03 07:05:05;;;;;;;10.95;6.05;;;;;;;12.51;71.48;94389.66;5080239;28;20246;-70
2023/12/03 07:07:32;;;;;;;11.75;6.55;;;;;;;12.47;72.38;94400.69;5079405;28;20193;-70
2023/12/03 07:09:59;;;;;;;12.65;7.68;;;;;;;12.49;72.14;94411.34;5079983;28;20246;-71
2023/12/03 07:12:28;;;;;;;10.25;5.55;;;;;;;12.50;72.14;94405.47;5080013;28;20200;-70
2023/12/03 07:14:55;;;;;;;11.75;5.10;;;;;;;12.49;72.88;94416.88;5078514;28;20243;-69
2023/12/03 07:17:24;;;;;;;9.65;4.93;;;;;;;12.46;73.37;94410.16;5079179;28;20235;-70
2023/12/03 07:19:50;;;;;;;8.85;3.95;;;;;;;12.41;74.12;94409.72;5096842;28;20208;-71
2023/12/03 07:22:18;;;;;;;9.57;3.88;;;;;;;12.36;74.53;94418.38;5096599;28;20620;-71
2023/12/03 07:24:44;;;;;;;8.50;4.35;;;;;;;12.32;74.66;94421.09;5079197;28;20204;-70
2023/12/03 07:27:11;;;;;;;8.57;5.03;;;;;;;12.28;75.51;94420.25;5096923;28;20227;-71
2023/12/03 07:29:38;;;;;;;6.85;3.38;;;;;;;12.26;75.99;94426.16;5096869;28;20298;-71
2023/12/03 07:32:06;;;;;;;6.78;4.10;;;;;;;12.22;76.42;94432.84;5096813;28;20173;-71
2023/12/03 07:34:34;;;;;;;8.70;4.22;;;;;;;12.20;76.67;94427.69;5079140;28;20219;-71
2023/12/03 07:37:02;;;;;;;9.23;4.20;;;;;;;12.19;76.84;94430.81;5079194;28;20239;-70
2023/12/03 07:39:29;;;;;;;8.45;5.40;;;;;;;12.16;77.52;94448.16;5097131;28;20245;-71
2023/12/03 07:41:56;;;;;;;10.80;5.03;;;;;;;12.12;78.20;94442.59;5079544;28;20192;-71
2023/12/03 07:44:23;;;;;;;10.32;5.15;;;;;;;12.09;78.10;94450.84;5079157;28;20231;-70
2023/12/03 07:46:50;;;;;;;10.75;5.35;;;;;;;12.07;78.11;94458.72;5078249;28;20295;-70
2023/12/03 07:49:17;;;;;;;7.28;3.88;;;;;;;11.96;77.97;94473.22;5078299;28;20216;-70
2023/12/03 07:51:48;;;;;;;6.63;3.85;;;;;;;11.88;78.16;94477.06;5078707;28;20381;-70
2023/12/03 07:54:15;;;;;;;9.77;3.95;;;;;;;11.85;77.43;94482.53;5096266;28;20204;-70
2023/12/03 07:56:42;;;;;;;8.50;3.63;;;;;;;11.80;77.66;94478.91;5078528;28;20261;-70
2023/12/03 07:59:09;;;;;;;5.78;4.07;;;;;;;11.75;77.94;94497.78;5078609;28;20215;-70
2023/12/03 08:01:36;;;;;;;4.45;3.85;;;;;;;11.69;78.01;94505.59;5078741;28;20200;-70
2023/12/03 08:04:04;;;;;;;5.10;3.97;;;;;;;11.51;77.01;94510.06;5078209;28;20207;-71
2023/12/03 08:06:31;;;;;;;6.15;4.40;;;;;;;11.39;77.79;94519.34;5078974;28;20295;-71
2023/12/03 08:09:00;;;;;;;6.10;4.90;;;;;;;11.21;77.14;94519.06;5077725;28;20241;-70
2023/12/03 08:11:27;;;;;;;5.35;4.85;;;;;;;11.11;77.18;94529.94;5094776;28;20205;-70
2023/12/03 08:13:56;;;;;;;5.43;4.85;;;;;;;10.98;76.89;94543.16;5068249;28;20616;-71
2023/12/03 08:16:23;;;;;;;5.28;4.65;;;;;;;10.93;77.15;94546.19;5055180;28;20197;-71
2023/12/03 08:18:50;;;;;;;6.97;5.38;;;;;;;10.91;77.73;94554.06;5054619;28;20606;-71
2023/12/03 08:21:19;;;;;;;7.70;5.43;;;;;;;10.83;77.76;94553.94;5054767;28;20629;-70
2023/12/03 08:23:46;;;;;;;9.57;5.68;;;;;;;10.79;78.05;94564.09;5054524;28;20256;-70
2023/12/03 08:26:15;;;;;;;5.53;4.65;;;;;;;10.70;77.54;94571.00;5055492;28;20182;-70
2023/12/03 08:28:42;;;;;;;5.85;5.35;;;;;;;10.64;78.38;94573.28;5055150;28;20209;-71
2023/12/03 08:31:12;;;;;;;6.25;4.80;;;;;;;10.37;76.97;94580.63;5054728;28;20213;-71
2023/12/03 08:33:41;;;;;;;5.97;5.35;;;;;;;10.33;76.70;94572.28;5055703;28;20213;-71
2023/12/03 08:36:16;;;;;;;5.35;4.85;;;;;;;10.05;76.11;94568.91;5054409;28;20204;-71
2023/12/03 08:38:46;;;;;;;5.43;4.97;;;;;;;9.97;76.29;94569.94;5055044;28;20656;-71
2023/12/03 08:41:18;;;;;;;6.57;5.82;;;;;;;9.93;77.18;94580.06;5054993;28;20196;-70
2023/12/03 08:43:47;;;;;;;6.60;6.07;;;;;;;9.87;77.62;94571.28;5054325;28;20182;-71
2023/12/03 08:46:20;;;;;;;6.57;5.97;;;;;;;9.82;77.45;94580.63;5054317;28;20198;-71
2023/12/03 08:48:51;;;;;;;7.25;6.45;;;;;;;9.80;76.30;94585.72;5053930;28;20209;-71
2023/12/03 08:51:21;;;;;;;6.18;5.57;;;;;;;9.65;75.29;94579.06;5053974;28;20276;-71
2023/12/03 08:53:51;;;;;;;5.97;5.30;;;;;;;9.52;75.08;94585.84;5054160;28;20204;-70
2023/12/03 08:56:26;;;;;;;6.85;6.28;;;;;;;9.50;75.44;94587.38;5054383;28;20235;-70
2023/12/03 08:58:54;;;;;;;6.30;5.80;;;;;;;9.45;75.16;94585.69;5053935;28;20232;-70
2023/12/03 09:01:22;;;;;;;6.25;5.70;;;;;;;9.45;75.37;94590.41;5053290;28;20255;-71
2023/12/03 09:03:51;;;;;;;6.85;6.25;;;;;;;9.38;73.98;94591.81;5053804;28;20606;-70
2023/12/03 09:06:20;;;;;;;6.65;6.15;;;;;;;9.28;74.10;94586.84;5053790;28;20296;-70
2023/12/03 09:08:50;;;;;;;6.93;6.32;;;;;;;9.25;74.14;94578.50;5053628;28;20213;-70
2023/12/03 09:11:19;;;;;;;6.68;5.93;;;;;;;9.24;74.48;94585.97;5053627;28;20228;-70
2023/12/03 09:13:51;;;;;;;6.75;6.18;;;;;;;9.22;74.56;94592.97;5053827;28;20229;-70
2023/12/03 09:16:21;;;;;;;6.97;6.28;;;;;;;9.22;74.63;94601.22;5069924;28;20222;-70
2023/12/03 09:18:51;;;;;;;7.20;6.60;;;;;;;9.18;74.49;94606.66;5055141;28;20251;-70
2023/12/03 09:21:23;;;;;;;6.75;6.18;;;;;;;9.10;74.96;94613.13;5053735;28;20190;-70
2023/12/03 09:23:54;;;;;;;7.25;6.18;;;;;;;9.03;75.02;94624.75;5074319;28;20255;-70
2023/12/03 09:26:21;;;;;;;6.85;6.25;;;;;;;8.98;75.13;94627.78;5057662;28;20216;-70
2023/12/03 09:28:53;;;;;;;6.47;5.88;;;;;;;8.98;75.05;94627.78;5058097;28;20198;-70
2023/12/03 09:31:24;;;;;;;7.60;6.90;;;;;;;8.92;75.07;94642.91;5075065;28;20552;-71
2023/12/03 09:33:52;;;;;;;7.22;6.50;;;;;;;8.87;75.25;94640.44;5057320;28;20194;-71
2023/12/03 09:36:25;;;;;;;7.78;6.38;;;;;;;8.79;75.81;94636.72;5057365;28;20202;-71
2023/12/03 09:38:54;;;;;;;6.68;6.07;;;;;;;8.68;76.18;94633.66;5057250;28;20209;-70
2023/12/03 09:41:23;;;;;;;7.30;6.68;;;;;;;8.57;75.98;94646.31;5057161;28;20512;-71
2023/12/03 09:44:00;;;;;;;7.40;6.80;;;;;;;8.58;76.44;94628.66;5057337;28;20193;-71
2023/12/03 09:46:32;;;;;;;7.07;6.47;;;;;;;8.56;76.08;94630.97;5057358;28;20208;-71
2023/12/03 09:49:06;;;;;;;8.18;7.38;;;;;;;8.56;76.18;94638.41;5057430;28;20225;-71
2023/12/03 09:51:38;;;;;;;8.05;7.25;;;;;;;8.44;76.05;94653.81;5057164;28;20271;-71
2023/12/03 09:54:07;;;;;;;7.28;6.57;;;;;;;8.27;75.83;94647.75;5073931;28;20213;-71
2023/12/03 09:56:49;;;;;;;7.07;6.38;;;;;;;8.18;76.07;94667.16;5057197;28;20205;-71
2023/12/03 09:59:24;;;;;;;7.78;6.57;;;;;;;8.19;75.68;94657.75;5057250;28;20212;-71
2023/12/03 10:01:52;;;;;;;7.68;6.93;;;;;;;8.12;75.38;94652.84;5057686;28;20185;-70
2023/12/03 10:04:23;;;;;;;6.38;5.80;;;;;;;7.99;73.59;94687.00;5057776;28;20240;-70
2023/12/03 10:06:52;;;;;;;7.10;6.50;;;;;;;7.91;73.66;94685.16;5056912;28;20213;-70
2023/12/03 10:09:22;;;;;;;7.07;6.38;;;;;;;7.89;73.60;94688.25;5056721;28;20205;-70
2023/12/03 10:11:56;;;;;;;7.45;6.75;;;;;;;7.83;73.79;94691.56;5073412;28;20255;-70
2023/12/03 10:14:27;;;;;;;7.22;5.70;;;;;;;7.68;73.27;94696.59;5054729;28;20320;-71
2023/12/03 10:16:58;;;;;;;7.28;6.40;;;;;;;7.62;72.67;94697.16;5056703;28;20198;-70
2023/12/03 10:19:26;;;;;;;7.18;6.55;;;;;;;7.53;72.52;94713.75;5056688;28;20194;-70
2023/12/03 10:21:55;;;;;;;7.13;6.53;;;;;;;7.48;72.83;94709.31;5056653;28;20202;-70
2023/12/03 10:24:25;;;;;;;7.75;6.53;;;;;;;7.42;72.95;94716.16;5056573;28;20185;-70
2023/12/03 10:26:53;;;;;;;6.90;6.35;;;;;;;7.45;73.71;94718.22;5056384;28;20664;-70
2023/12/03 10:29:25;;;;;;;6.68;6.07;;;;;;;7.47;73.87;94723.34;5056451;28;20210;-70
2023/12/03 10:31:56;;;;;;;6.20;5.70;;;;;;;7.48;73.70;94722.22;5073082;28;20688;-70
2023/12/03 10:34:24;;;;;;;7.05;6.38;;;;;;;7.46;73.58;94722.56;5072028;28;20536;-70
2023/12/03 10:36:52;;;;;;;7.78;7.00;;;;;;;7.50;73.63;94722.69;5073305;28;20230;-72
2023/12/03 10:39:20;;;;;;;8.10;7.45;;;;;;;7.50;72.77;94703.47;5057399;28;20205;-69
2023/12/03 10:41:49;;;;;;;7.97;7.28;;;;;;;7.48;73.05;94711.25;5057248;28;20508;-69
2023/12/03 10:44:21;;;;;;;8.27;7.47;;;;;;;7.42;72.42;94715.34;5057801;28;20605;-68
2023/12/03 10:46:54;;;;;;;7.18;6.57;;;;;;;7.41;72.52;94717.31;5072853;28;20208;-69
2023/12/03 10:49:25;;;;;;;7.80;6.65;;;;;;;7.24;71.81;94726.53;5073499;28;20216;-69
2023/12/03 10:51:56;;;;;;;7.28;6.68;;;;;;;7.22;72.47;94730.75;5056113;28;20218;-69
2023/12/03 10:54:25;;;;;;;7.68;6.97;;;;;;;7.23;72.72;94735.09;5056097;28;20256;-70
2023/12/03 10:56:58;;;;;;;7.78;6.97;;;;;;;7.27;72.50;94737.97;5073197;28;20197;-69
2023/12/03 10:59:30;;;;;;;8.05;7.28;;;;;;;7.23;72.25;94724.13;5056918;28;20225;-69
2023/12/03 11:02:07;;;;;;;8.73;7.93;;;;;;;7.22;73.10;94728.78;5055751;28;20296;-68
2023/12/03 11:04:44;;;;;;;8.02;7.25;;;;;;;7.21;72.88;94726.41;5055893;28;20271;-69
2023/12/03 11:07:17;;;;;;;8.10;7.38;;;;;;;7.11;72.69;94741.34;5072860;28;20209;-69
2023/12/03 11:09:45;;;;;;;6.82;6.22;;;;;;;6.97;72.36;94735.34;5073652;28;20189;-69
2023/12/03 11:12:14;;;;;;;7.00;6.40;;;;;;;6.94;71.74;94738.78;5072943;28;20217;-69
2023/12/03 11:14:42;;;;;;;7.43;6.80;;;;;;;6.91;71.75;94726.56;5066960;28;20241;-69
2023/12/03 11:17:16;;;;;;;7.15;6.55;;;;;;;6.96;71.99;94731.00;5076371;28;20248;-69
2023/12/03 11:19:50;;;;;;;7.28;6.68;;;;;;;7.05;71.79;94748.19;5076559;28;20199;-69
2023/12/03 11:22:27;;;;;;;7.10;6.43;;;;;;;7.05;71.61;94747.41;5076861;28;20197;-70
2023/12/03 11:25:05;;;;;;;7.10;6.50;;;;;;;6.96;71.59;94747.47;5075272;28;20266;-71
2023/12/03 11:27:34;;;;;;;6.93;6.43;;;;;;;6.85;71.00;94760.00;5075236;28;20232;-70
2023/12/03 11:30:04;;;;;;;6.90;6.30;;;;;;;6.87;71.70;94771.44;5091878;28;20216;-71
2023/12/03 11:32:37;;;;;;;6.90;6.30;;;;;;;6.91;70.92;94764.94;5093217;28;20200;-71
2023/12/03 11:35:08;;;;;;;7.10;6.50;;;;;;;6.88;70.29;94781.25;5075760;28;20202;-70
2023/12/03 11:37:36;;;;;;;5.93;5.50;;;;;;;6.73;69.64;94791.69;5075583;28;20270;-70
2023/12/03 11:40:10;;;;;;;5.85;5.35;;;;;;;6.68;70.27;94791.91;5075582;28;20205;-70